createdAt,value
2023-02-15T00:00:06.900Z,100.00
2023-02-15T00:02:33.652Z,100.00
2023-02-15T00:05:00.385Z,100.00
2023-02-15T00:07:27.170Z,100.00
2023-02-15T00:09:53.936Z,100.00
2023-02-15T00:12:20.733Z,100.00
2023-02-15T00:14:48.458Z,100.00
2023-02-15T00:17:15.253Z,100.00
2023-02-15T00:19:42.000Z,100.00
2023-02-15T00:22:09.017Z,100.00
2023-02-15T00:24:38.581Z,100.00
2023-02-15T00:27:05.560Z,100.00
2023-02-15T00:29:32.779Z,100.00
2023-02-15T00:31:59.557Z,100.00
2023-02-15T00:34:28.434Z,100.00
2023-02-15T00:36:55.491Z,100.00
2023-02-15T00:39:22.453Z,100.00
2023-02-15T00:41:49.267Z,100.00
2023-02-15T00:44:16.628Z,100.00
2023-02-15T00:46:43.748Z,100.00
2023-02-15T00:49:11.543Z,100.00
2023-02-15T00:51:39.077Z,100.00
2023-02-15T00:54:06.491Z,100.00
2023-02-15T00:56:33.391Z,100.00
2023-02-15T00:59:00.248Z,100.00
2023-02-15T01:01:27.104Z,100.00
2023-02-15T01:03:54.016Z,100.00
2023-02-15T01:06:21.013Z,100.00
2023-02-15T01:08:48.704Z,100.00
2023-02-15T01:11:23.356Z,100.00
2023-02-15T01:13:53.391Z,100.00
2023-02-15T01:16:20.917Z,100.00
2023-02-15T01:18:48.410Z,100.00
2023-02-15T01:21:19.510Z,100.00
2023-02-15T01:23:47.130Z,100.00
2023-02-15T01:26:15.507Z,100.00
2023-02-15T01:28:42.339Z,100.00
2023-02-15T01:31:12.459Z,100.00
2023-02-15T01:33:41.247Z,100.00
2023-02-15T01:36:08.035Z,100.00
2023-02-15T01:38:36.484Z,100.00
2023-02-15T01:41:22.944Z,100.00
2023-02-15T01:43:58.739Z,100.00
2023-02-15T01:46:32.093Z,100.00
2023-02-15T01:49:21.631Z,100.00
2023-02-15T01:51:52.252Z,100.00
2023-02-15T01:54:31.194Z,100.00
2023-02-15T01:57:05.106Z,100.00
2023-02-15T01:59:34.349Z,100.00
2023-02-15T02:02:02.803Z,100.00
2023-02-15T02:04:49.510Z,100.00
2023-02-15T02:07:21.136Z,100.00
2023-02-15T02:09:49.566Z,100.00
2023-02-15T02:12:18.768Z,100.00
2023-02-15T02:14:47.279Z,100.00
2023-02-15T02:17:41.849Z,100.00
2023-02-15T02:20:42.248Z,100.00
2023-02-15T02:23:52.609Z,100.00
2023-02-15T02:26:51.895Z,100.00
2023-02-15T02:29:33.352Z,100.00
2023-02-15T02:32:31.529Z,100.00
2023-02-15T02:35:41.261Z,100.00
2023-02-15T02:38:46.692Z,100.00
2023-02-15T02:41:50.328Z,100.00
2023-02-15T02:44:35.794Z,100.00
2023-02-15T02:47:22.219Z,100.00
2023-02-15T02:49:48.952Z,100.00
2023-02-15T02:52:41.687Z,100.00
2023-02-15T02:55:37.141Z,100.00
2023-02-15T02:58:12.168Z,100.00
2023-02-15T03:00:50.038Z,100.00
2023-02-15T03:03:30.058Z,100.00
2023-02-15T03:06:02.089Z,100.00
2023-02-15T03:08:40.708Z,100.00
2023-02-15T03:11:07.906Z,100.00
2023-02-15T03:13:35.865Z,100.00
2023-02-15T03:16:23.370Z,100.00
2023-02-15T03:18:58.952Z,100.00
2023-02-15T03:21:58.718Z,100.00
2023-02-15T03:24:33.482Z,100.00
2023-02-15T03:27:01.857Z,100.00
2023-02-15T03:29:32.685Z,100.00
2023-02-15T03:32:04.813Z,100.00
2023-02-15T03:34:31.653Z,100.00
2023-02-15T03:37:19.557Z,100.00
2023-02-15T03:40:29.497Z,100.00
2023-02-15T03:43:55.478Z,100.00
2023-02-15T03:46:54.768Z,100.00
2023-02-15T03:49:27.822Z,100.00
2023-02-15T03:51:57.570Z,100.00
2023-02-15T03:54:44.425Z,100.00
2023-02-15T03:57:48.248Z,100.00
2023-02-15T04:00:41.879Z,100.00
2023-02-15T04:03:08.593Z,100.00
2023-02-15T04:05:35.392Z,100.00
2023-02-15T04:08:03.065Z,100.00
2023-02-15T04:10:48.536Z,100.00
2023-02-15T04:13:15.282Z,100.00
2023-02-15T04:16:00.942Z,100.00
2023-02-15T04:18:46.612Z,100.00
2023-02-15T04:21:32.172Z,100.00
2023-02-15T04:24:17.386Z,100.00
2023-02-15T04:26:44.219Z,100.00
2023-02-15T04:29:11.080Z,100.00
2023-02-15T04:31:37.980Z,100.00
2023-02-15T04:34:04.781Z,100.00
2023-02-15T04:36:31.641Z,100.00
2023-02-15T04:38:58.474Z,100.00
2023-02-15T04:41:25.242Z,100.00
2023-02-15T04:43:52.034Z,100.00
2023-02-15T04:46:18.810Z,100.00
2023-02-15T04:48:45.625Z,100.00
2023-02-15T04:51:12.735Z,100.00
2023-02-15T04:53:39.493Z,100.00
2023-02-15T04:56:06.402Z,100.00
2023-02-15T04:58:33.261Z,100.00
2023-02-15T05:01:00.740Z,100.00
2023-02-15T05:03:27.526Z,100.00
2023-02-15T05:05:54.382Z,100.00
2023-02-15T05:08:21.274Z,100.00
2023-02-15T05:10:50.900Z,100.00
2023-02-15T05:13:17.698Z,100.00
2023-02-15T05:15:54.278Z,100.00
2023-02-15T05:18:22.660Z,100.00
2023-02-15T05:24:55.044Z,99.72
2023-02-15T05:27:40.643Z,99.05
2023-02-15T05:30:12.766Z,98.96
2023-02-15T05:32:40.414Z,98.86
2023-02-15T05:35:08.792Z,98.92
2023-02-15T05:37:35.566Z,99.09
2023-02-15T05:40:02.328Z,99.24
2023-02-15T05:42:29.113Z,98.95
2023-02-15T05:44:55.895Z,99.03
2023-02-15T05:47:22.663Z,98.41
2023-02-15T05:49:49.420Z,98.38
2023-02-15T05:52:16.174Z,98.28
2023-02-15T05:54:42.960Z,97.68
2023-02-15T05:57:09.711Z,97.59
2023-02-15T05:59:36.465Z,97.62
2023-02-15T06:02:03.212Z,97.43
2023-02-15T06:04:29.947Z,97.79
2023-02-15T06:06:56.705Z,97.88
2023-02-15T06:09:23.452Z,97.64
2023-02-15T06:11:50.330Z,97.98
2023-02-15T06:14:17.248Z,97.94
2023-02-15T06:16:44.991Z,98.02
2023-02-15T06:19:11.754Z,98.22
2023-02-15T06:21:38.505Z,97.97
2023-02-15T06:24:05.457Z,97.81
2023-02-15T06:26:32.289Z,98.27
2023-02-15T06:28:59.028Z,98.48
2023-02-15T06:31:25.892Z,98.53
2023-02-15T06:33:52.774Z,98.38
2023-02-15T06:36:19.516Z,98.52
2023-02-15T06:38:46.264Z,98.62
2023-02-15T06:41:12.991Z,98.37
2023-02-15T06:43:41.014Z,98.08
2023-02-15T06:46:07.988Z,98.21
2023-02-15T06:48:34.754Z,98.42
2023-02-15T06:51:01.571Z,98.36
2023-02-15T06:53:28.489Z,97.71
2023-02-15T06:56:07.679Z,97.85
2023-02-15T06:58:34.711Z,97.34
2023-02-15T07:01:01.466Z,97.24
2023-02-15T07:03:28.225Z,97.57
2023-02-15T07:06:00.448Z,98.40
2023-02-15T07:08:28.558Z,98.63
2023-02-15T07:11:16.973Z,98.32
2023-02-15T07:13:43.839Z,98.27
2023-02-15T07:16:11.204Z,97.84
2023-02-15T07:18:39.097Z,97.63
2023-02-15T07:21:08.996Z,97.43
2023-02-15T07:23:37.717Z,97.46
2023-02-15T07:26:05.481Z,97.83
2023-02-15T07:28:33.661Z,97.97
2023-02-15T07:31:05.824Z,98.43
2023-02-15T07:33:33.627Z,98.88
2023-02-15T07:36:03.995Z,98.80
2023-02-15T07:38:35.361Z,98.57
2023-02-15T07:41:13.225Z,98.69
2023-02-15T07:43:43.522Z,98.97
2023-02-15T07:46:17.536Z,99.18
2023-02-15T07:48:45.658Z,99.21
2023-02-15T07:51:13.562Z,99.18
2023-02-15T07:53:40.708Z,99.16
2023-02-15T07:56:15.459Z,99.48
2023-02-15T07:58:56.817Z,100.00
2023-02-15T08:01:31.512Z,100.00
2023-02-15T08:03:59.090Z,100.00
2023-02-15T08:06:30.424Z,100.00
2023-02-15T08:08:57.803Z,100.00
2023-02-15T08:11:33.829Z,100.00
2023-02-15T08:14:06.292Z,100.00
2023-02-15T08:16:37.332Z,100.00
2023-02-15T08:19:11.025Z,100.00
2023-02-15T08:21:41.403Z,100.00
2023-02-15T08:24:10.281Z,100.00
2023-02-15T08:26:37.893Z,100.00
2023-02-15T08:29:06.322Z,100.00
2023-02-15T08:31:34.146Z,100.00
2023-02-15T08:34:01.249Z,100.00
2023-02-15T08:36:30.610Z,100.00
2023-02-15T08:39:02.568Z,100.00
2023-02-15T08:41:37.532Z,100.00
2023-02-15T08:44:07.853Z,100.00
2023-02-15T08:46:39.696Z,100.00
2023-02-15T08:49:07.154Z,100.00
2023-02-15T08:51:37.141Z,100.00
2023-02-15T08:54:10.637Z,100.00
2023-02-15T08:56:41.182Z,100.00
2023-02-15T08:59:13.981Z,100.00
2023-02-15T09:01:40.851Z,100.00
2023-02-15T09:04:11.885Z,100.00
2023-02-15T09:06:40.632Z,100.00
2023-02-15T09:09:08.906Z,100.00
2023-02-15T09:11:39.676Z,99.97
2023-02-15T09:14:10.375Z,99.77
2023-02-15T09:16:39.379Z,99.23
2023-02-15T09:19:06.774Z,98.92
2023-02-15T09:21:37.359Z,98.69
2023-02-15T09:24:21.801Z,98.04
2023-02-15T09:26:52.040Z,98.11
2023-02-15T09:29:20.448Z,97.90
2023-02-15T09:34:35.124Z,97.22
2023-02-15T09:37:03.848Z,96.99
2023-02-15T09:39:30.856Z,96.48
2023-02-15T09:42:26.336Z,95.77
2023-02-15T09:45:33.816Z,95.60
2023-02-15T09:48:37.061Z,95.63
2023-02-15T09:51:53.971Z,95.65
2023-02-15T09:54:45.835Z,95.90
2023-02-15T09:57:50.266Z,95.47
2023-02-15T10:00:36.573Z,94.83
2023-02-15T10:03:37.424Z,93.55
2023-02-15T10:06:25.860Z,93.65
2023-02-15T10:09:34.852Z,92.40
2023-02-15T10:12:52.940Z,92.96
2023-02-15T10:15:34.708Z,90.15
2023-02-15T10:18:20.004Z,89.69
2023-02-15T10:21:28.426Z,88.43
2023-02-15T10:24:07.550Z,89.30
2023-02-15T10:26:50.103Z,88.35
2023-02-15T10:29:40.818Z,87.64
2023-02-15T10:32:27.812Z,86.96
2023-02-15T10:35:29.880Z,87.42
2023-02-15T10:38:27.585Z,87.85
2023-02-15T10:41:23.509Z,86.13
2023-02-15T10:44:20.389Z,84.79
2023-02-15T10:47:42.343Z,82.87
2023-02-15T10:50:39.295Z,83.36
2023-02-15T10:53:55.719Z,80.45
2023-02-15T10:59:44.923Z,78.98
2023-02-15T11:02:36.156Z,77.96
2023-02-15T11:05:55.880Z,77.70
2023-02-15T11:08:25.685Z,77.44
2023-02-15T11:11:02.087Z,77.69
2023-02-15T11:13:36.902Z,77.20
2023-02-15T11:16:09.559Z,74.90
2023-02-15T11:18:45.750Z,73.86
2023-02-15T11:21:24.351Z,73.55
2023-02-15T11:23:51.745Z,73.27
2023-02-15T11:26:30.054Z,72.10
2023-02-15T11:29:27.726Z,71.09
2023-02-15T11:31:58.818Z,70.05
2023-02-15T11:34:36.079Z,69.41
2023-02-15T11:37:11.210Z,68.33
2023-02-15T11:39:38.428Z,67.69
2023-02-15T11:42:15.482Z,66.88
2023-02-15T11:45:02.590Z,66.92
2023-02-15T11:47:29.638Z,67.01
2023-02-15T11:49:56.438Z,67.02
2023-02-15T11:52:23.437Z,66.19
2023-02-15T11:54:52.733Z,65.90
2023-02-15T11:57:29.199Z,66.02
2023-02-15T12:00:37.081Z,64.72
2023-02-15T12:03:29.997Z,62.42
2023-02-15T12:06:05.171Z,63.21
2023-02-15T12:08:40.836Z,63.72
2023-02-15T12:11:23.569Z,61.81
2023-02-15T12:14:07.578Z,61.38
2023-02-15T12:16:54.820Z,60.48
2023-02-15T12:19:35.683Z,58.63
2023-02-15T12:22:05.218Z,58.84
2023-02-15T12:24:40.108Z,57.77
2023-02-15T12:27:18.917Z,58.30
2023-02-15T12:29:51.080Z,58.04
2023-02-15T12:32:25.041Z,56.91
2023-02-15T12:35:16.367Z,55.97
2023-02-15T12:37:56.213Z,56.04
2023-02-15T12:40:31.415Z,55.08
2023-02-15T12:42:59.434Z,54.26
2023-02-15T12:45:32.762Z,54.97
2023-02-15T12:48:17.446Z,54.72
2023-02-15T12:50:54.288Z,53.85
2023-02-15T12:53:32.568Z,51.47
2023-02-15T12:56:05.415Z,52.18
2023-02-15T12:58:34.892Z,50.54
2023-02-15T13:01:25.599Z,49.52
2023-02-15T13:04:06.191Z,49.78
2023-02-15T13:06:36.023Z,50.33
2023-02-15T13:09:33.582Z,48.68
2023-02-15T13:12:20.023Z,47.16
2023-02-15T13:14:52.087Z,47.15
2023-02-15T13:17:25.824Z,48.67
2023-02-15T13:19:55.538Z,48.48
2023-02-15T13:22:43.989Z,47.64
2023-02-15T13:25:25.403Z,46.78
2023-02-15T13:27:57.365Z,47.46
2023-02-15T13:30:30.212Z,46.43
2023-02-15T13:33:03.450Z,45.11
2023-02-15T13:35:46.005Z,46.23
2023-02-15T13:38:37.678Z,45.88
2023-02-15T13:41:10.817Z,45.87
2023-02-15T13:44:08.318Z,44.26
2023-02-15T13:46:53.885Z,44.57
2023-02-15T13:49:57.909Z,45.28
2023-02-15T13:52:26.327Z,43.84
2023-02-15T13:55:14.781Z,44.02
2023-02-15T13:58:08.996Z,44.17
2023-02-15T14:00:50.469Z,43.59
2023-02-15T14:04:00.350Z,42.72
2023-02-15T14:07:05.751Z,42.85
2023-02-15T14:10:02.681Z,42.31
2023-02-15T14:12:45.057Z,42.11
2023-02-15T14:15:24.395Z,40.21
2023-02-15T14:18:09.185Z,40.59
2023-02-15T14:21:19.169Z,40.04
2023-02-15T14:24:40.917Z,39.58
2023-02-15T14:27:58.317Z,39.32
2023-02-15T14:30:32.532Z,39.86
2023-02-15T14:33:35.219Z,39.78
2023-02-15T14:36:07.609Z,39.73
2023-02-15T14:38:55.567Z,39.09
2023-02-15T14:41:51.292Z,38.58
2023-02-15T14:44:41.168Z,39.00
2023-02-15T14:47:23.709Z,37.39
2023-02-15T14:49:50.529Z,38.58
2023-02-15T14:52:17.325Z,37.88
2023-02-15T14:54:46.823Z,37.35
2023-02-15T14:57:13.522Z,37.21
2023-02-15T15:00:12.244Z,37.40
2023-02-15T15:02:49.905Z,37.81
2023-02-15T15:05:35.561Z,38.64
2023-02-15T15:08:05.855Z,38.87
2023-02-15T15:10:43.365Z,38.48
2023-02-15T15:13:31.646Z,37.40
2023-02-15T15:16:30.517Z,38.15
2023-02-15T15:18:58.806Z,38.44
2023-02-15T15:21:49.986Z,38.36
2023-02-15T15:24:38.491Z,39.21
2023-02-15T15:27:47.102Z,39.08
2023-02-15T15:30:20.260Z,39.59
2023-02-15T15:32:55.890Z,39.87
2023-02-15T15:35:44.943Z,39.55
2023-02-15T15:38:29.976Z,40.07
2023-02-15T15:41:36.621Z,40.59
2023-02-15T15:44:52.536Z,41.02
2023-02-15T15:48:06.168Z,41.06
2023-02-15T15:50:34.110Z,41.75
2023-02-15T15:53:03.648Z,41.73
2023-02-15T15:55:33.409Z,42.10
2023-02-15T15:58:07.104Z,42.75
2023-02-15T16:00:48.590Z,43.28
2023-02-15T16:03:28.882Z,44.09
2023-02-15T16:05:57.262Z,45.10
2023-02-15T16:08:37.555Z,45.62
2023-02-15T16:11:32.491Z,46.92
2023-02-15T16:13:59.355Z,47.97
2023-02-15T16:16:29.969Z,48.33
2023-02-15T16:19:01.538Z,49.23
2023-02-15T16:21:35.926Z,49.64
2023-02-15T16:24:15.307Z,50.38
2023-02-15T16:26:49.529Z,51.30
2023-02-15T16:29:32.598Z,51.89
2023-02-15T16:32:06.863Z,52.38
2023-02-15T16:34:34.422Z,53.37
2023-02-15T16:37:27.146Z,54.08
2023-02-15T16:39:57.438Z,54.58
2023-02-15T16:42:25.516Z,55.30
2023-02-15T16:45:14.243Z,56.08
2023-02-15T16:47:45.392Z,56.73
2023-02-15T16:50:25.181Z,57.38
2023-02-15T16:52:53.264Z,58.09
2023-02-15T16:55:38.379Z,58.63
2023-02-15T16:58:08.640Z,59.04
2023-02-15T17:00:39.438Z,59.57
2023-02-15T17:03:13.672Z,59.95
2023-02-15T17:05:57.081Z,60.45
2023-02-15T17:08:43.327Z,60.64
2023-02-15T17:11:40.848Z,61.31
2023-02-15T17:14:10.781Z,61.88
2023-02-15T17:16:51.687Z,62.16
2023-02-15T17:19:24.821Z,63.23
2023-02-15T17:22:04.860Z,63.06
2023-02-15T17:24:31.481Z,63.21
2023-02-15T17:27:02.871Z,63.64
2023-02-15T17:29:40.262Z,64.04
2023-02-15T17:32:19.260Z,63.93
2023-02-15T17:34:59.850Z,65.51
2023-02-15T17:37:32.065Z,65.89
2023-02-15T17:40:01.294Z,66.34
2023-02-15T17:42:28.357Z,66.86
2023-02-15T17:44:55.269Z,67.77
2023-02-15T17:47:25.892Z,68.63
2023-02-15T17:49:53.871Z,69.81
2023-02-15T17:52:20.828Z,69.94
2023-02-15T17:55:06.111Z,70.05
2023-02-15T17:57:32.938Z,71.20
2023-02-15T18:00:18.273Z,71.77
2023-02-15T18:03:04.004Z,72.32
2023-02-15T18:05:49.189Z,72.00
2023-02-15T18:08:37.605Z,72.20
2023-02-15T18:11:23.444Z,71.91
2023-02-15T18:13:50.242Z,71.63
2023-02-15T18:16:23.102Z,72.14
2023-02-15T18:18:50.031Z,72.62
2023-02-15T18:21:16.763Z,73.08
2023-02-15T18:23:43.606Z,75.08
2023-02-15T18:26:17.929Z,75.83
2023-02-15T18:28:44.709Z,75.98
2023-02-15T18:31:12.787Z,76.59
2023-02-15T18:33:49.761Z,76.50
2023-02-15T18:36:37.706Z,77.37
2023-02-15T18:39:08.838Z,76.69
2023-02-15T18:41:35.770Z,77.20
2023-02-15T18:44:02.532Z,77.58
2023-02-15T18:46:29.282Z,77.42
2023-02-15T18:48:56.016Z,77.98
2023-02-15T18:51:24.018Z,78.09
2023-02-15T18:53:53.027Z,78.18
2023-02-15T18:56:22.939Z,78.35
2023-02-15T18:58:49.806Z,78.46
2023-02-15T19:01:20.668Z,79.10
2023-02-15T19:03:50.706Z,78.38
2023-02-15T19:06:21.145Z,78.92
2023-02-15T19:08:51.465Z,80.33
2023-02-15T19:11:23.320Z,80.62
2023-02-15T19:13:52.374Z,79.85
2023-02-15T19:16:37.842Z,79.34
2023-02-15T19:19:07.203Z,80.20
2023-02-15T19:21:34.073Z,80.82
2023-02-15T19:24:08.031Z,80.28
2023-02-15T19:26:45.594Z,82.04
2023-02-15T19:29:20.521Z,83.33
2023-02-15T19:31:47.423Z,84.23
2023-02-15T19:34:17.345Z,83.87
2023-02-15T19:36:47.078Z,84.85
2023-02-15T19:39:35.664Z,85.67
2023-02-15T19:42:02.469Z,86.51
2023-02-15T19:44:29.252Z,86.72
2023-02-15T19:46:56.362Z,86.45
2023-02-15T19:49:23.321Z,86.28
2023-02-15T19:51:50.118Z,85.16
2023-02-15T19:54:29.103Z,84.43
2023-02-15T19:56:56.419Z,85.17
2023-02-15T19:59:33.046Z,86.04
2023-02-15T20:02:00.385Z,86.71
2023-02-15T20:04:27.469Z,87.24
2023-02-15T20:06:57.782Z,87.37
2023-02-15T20:09:30.260Z,87.10
2023-02-15T20:11:57.302Z,87.32
2023-02-15T20:14:24.311Z,87.12
2023-02-15T20:16:51.378Z,86.95
2023-02-15T20:19:18.167Z,86.81
2023-02-15T20:21:47.224Z,86.87
2023-02-15T20:24:18.276Z,87.34
2023-02-15T20:26:45.582Z,88.13
2023-02-15T20:29:15.370Z,87.66
2023-02-15T20:31:43.288Z,87.97
2023-02-15T20:34:10.973Z,87.01
2023-02-15T20:36:39.322Z,87.71
2023-02-15T20:39:16.965Z,86.17
2023-02-15T20:41:49.626Z,85.48
2023-02-15T20:44:34.793Z,86.45
2023-02-15T20:47:02.839Z,87.58
2023-02-15T20:49:29.754Z,88.34
2023-02-15T20:51:58.468Z,88.50
2023-02-15T20:54:29.623Z,90.15
2023-02-15T20:56:56.470Z,90.88
2023-02-15T20:59:32.993Z,91.10
2023-02-15T21:02:03.220Z,90.34
2023-02-15T21:04:33.253Z,90.78
2023-02-15T21:07:00.814Z,91.40
2023-02-15T21:09:28.706Z,90.98
2023-02-15T21:11:57.126Z,90.74
2023-02-15T21:14:27.169Z,91.47
2023-02-15T21:16:54.246Z,91.64
2023-02-15T21:19:24.252Z,91.27
2023-02-15T21:21:53.320Z,91.58
2023-02-15T21:24:28.869Z,91.77
2023-02-15T21:26:58.876Z,92.14
2023-02-15T21:29:29.111Z,92.39
2023-02-15T21:31:58.506Z,92.83
2023-02-15T21:34:25.459Z,93.10
2023-02-15T21:36:52.366Z,93.42
2023-02-15T21:39:23.407Z,93.84
2023-02-15T21:42:11.864Z,93.88
2023-02-15T21:44:57.664Z,94.10
2023-02-15T21:47:47.033Z,93.61
2023-02-15T21:50:39.015Z,93.72
2023-02-15T21:53:09.880Z,93.79
2023-02-15T21:55:36.823Z,93.92
2023-02-15T21:58:03.672Z,93.87
2023-02-15T22:00:31.189Z,93.60
2023-02-15T22:03:00.966Z,92.47
2023-02-15T22:05:33.545Z,92.68
2023-02-15T22:08:01.024Z,93.85
2023-02-15T22:10:33.194Z,94.64
2023-02-15T22:13:03.333Z,94.25
2023-02-15T22:15:36.853Z,93.59
2023-02-15T22:18:04.891Z,93.22
2023-02-15T22:20:31.864Z,93.57
2023-02-15T22:22:58.628Z,93.82
2023-02-15T22:25:26.661Z,94.35
2023-02-15T22:27:54.891Z,95.39
2023-02-15T22:30:34.615Z,95.46
2023-02-15T22:33:02.575Z,95.65
2023-02-15T22:35:35.198Z,95.12
2023-02-15T22:38:01.958Z,93.86
2023-02-15T22:40:33.929Z,93.65
2023-02-15T22:43:03.574Z,92.65
2023-02-15T22:45:32.632Z,92.97
2023-02-15T22:48:01.985Z,93.79
2023-02-15T22:50:31.956Z,94.57
2023-02-15T22:53:03.539Z,94.67
2023-02-15T22:55:36.726Z,95.25
2023-02-15T22:58:04.349Z,95.51
2023-02-15T23:00:39.236Z,95.22
2023-02-15T23:03:16.865Z,95.45
2023-02-15T23:05:44.573Z,95.78
2023-02-15T23:08:12.026Z,96.00
2023-02-15T23:10:40.587Z,96.22
2023-02-15T23:13:33.743Z,95.81
2023-02-15T23:16:02.012Z,95.18
2023-02-15T23:18:39.409Z,94.76
2023-02-15T23:21:20.360Z,94.16
2023-02-15T23:23:55.061Z,94.04
2023-02-15T23:26:30.331Z,93.81
2023-02-15T23:29:00.248Z,92.87
2023-02-15T23:31:35.098Z,93.59
2023-02-15T23:34:12.903Z,92.42
2023-02-15T23:36:40.200Z,92.41
2023-02-15T23:39:43.967Z,93.05
2023-02-15T23:42:25.333Z,92.06
2023-02-15T23:44:52.429Z,91.98
2023-02-15T23:47:54.121Z,92.81
2023-02-15T23:50:28.516Z,93.05
2023-02-15T23:52:56.657Z,93.97
2023-02-15T23:55:25.938Z,93.91
2023-02-15T23:57:54.043Z,93.87
